createdAt,value
2023-01-29T00:01:59.950Z,2.46
2023-01-29T00:04:27.105Z,2.47
2023-01-29T00:06:53.965Z,2.38
2023-01-29T00:09:21.016Z,2.35
2023-01-29T00:11:47.998Z,2.45
2023-01-29T00:14:14.928Z,2.51
2023-01-29T00:16:42.177Z,2.33
2023-01-29T00:19:09.251Z,2.48
2023-01-29T00:21:36.196Z,2.43
2023-01-29T00:24:03.289Z,2.42
2023-01-29T00:26:30.715Z,2.54
2023-01-29T00:29:02.433Z,2.42
2023-01-29T00:31:30.295Z,2.42
2023-01-29T00:33:57.860Z,2.27
2023-01-29T00:36:26.290Z,2.51
2023-01-29T00:39:02.984Z,2.40
2023-01-29T00:41:50.525Z,2.33
2023-01-29T00:44:36.524Z,2.41
2023-01-29T00:47:04.047Z,2.47
2023-01-29T00:49:38.483Z,2.40
2023-01-29T00:52:24.069Z,2.46
2023-01-29T00:54:51.902Z,2.47
2023-01-29T00:57:18.843Z,2.42
2023-01-29T00:59:45.701Z,2.49
2023-01-29T01:02:31.612Z,2.45
2023-01-29T01:04:58.450Z,2.41
2023-01-29T01:07:25.348Z,2.40
2023-01-29T01:10:10.749Z,2.39
2023-01-29T01:12:37.766Z,2.40
2023-01-29T01:15:05.163Z,2.37
2023-01-29T01:17:32.248Z,2.34
2023-01-29T01:19:59.051Z,2.42
2023-01-29T01:22:26.151Z,2.35
2023-01-29T01:24:52.972Z,2.41
2023-01-29T01:27:19.797Z,2.46
2023-01-29T01:29:47.172Z,2.39
2023-01-29T01:32:14.370Z,2.41
2023-01-29T01:34:41.248Z,2.43
2023-01-29T01:37:08.152Z,2.55
2023-01-29T01:39:35.092Z,2.47
2023-01-29T01:42:02.030Z,2.42
2023-01-29T01:45:08.266Z,2.44
2023-01-29T01:47:54.718Z,2.23
2023-01-29T01:50:40.288Z,2.37
2023-01-29T01:53:13.184Z,2.49
2023-01-29T01:55:56.101Z,2.38
2023-01-29T01:58:36.602Z,2.32
2023-01-29T02:04:13.773Z,2.38
2023-01-29T02:07:00.283Z,2.42
2023-01-29T02:09:36.040Z,2.44
2023-01-29T02:12:05.995Z,2.40
2023-01-29T02:14:34.951Z,2.36
2023-01-29T02:17:02.293Z,2.35
2023-01-29T02:19:58.244Z,2.48
2023-01-29T02:22:28.488Z,2.53
2023-01-29T02:25:16.583Z,2.40
2023-01-29T02:27:59.397Z,2.48
2023-01-29T02:30:40.500Z,2.44
2023-01-29T02:33:23.414Z,2.49
2023-01-29T02:35:54.868Z,2.39
2023-01-29T02:38:36.896Z,2.37
2023-01-29T02:41:32.105Z,2.30
2023-01-29T02:44:08.055Z,2.39
2023-01-29T02:46:43.765Z,2.39
2023-01-29T02:49:58.295Z,2.37
2023-01-29T02:52:51.154Z,2.43
2023-01-29T02:55:44.338Z,2.36
2023-01-29T02:58:18.354Z,2.25
2023-01-29T03:00:48.047Z,2.33
2023-01-29T03:03:18.035Z,2.33
2023-01-29T03:06:09.915Z,2.44
2023-01-29T03:08:45.732Z,2.51
2023-01-29T03:11:15.268Z,2.41
2023-01-29T03:14:00.278Z,2.42
2023-01-29T03:16:35.671Z,2.35
2023-01-29T03:19:09.477Z,2.25
2023-01-29T03:21:59.790Z,2.34
2023-01-29T03:25:01.156Z,2.35
2023-01-29T03:27:51.985Z,2.20
2023-01-29T03:30:39.355Z,2.32
2023-01-29T03:33:09.534Z,2.23
2023-01-29T03:35:43.544Z,2.22
2023-01-29T03:38:12.563Z,2.27
2023-01-29T03:40:53.834Z,2.36
2023-01-29T03:43:44.113Z,2.38
2023-01-29T03:46:36.588Z,2.41
2023-01-29T03:49:29.755Z,2.43
2023-01-29T03:52:18.275Z,2.44
2023-01-29T03:55:07.081Z,2.50
2023-01-29T03:57:41.387Z,2.36
2023-01-29T04:00:19.034Z,2.36
2023-01-29T04:03:15.344Z,2.50
2023-01-29T04:05:53.114Z,2.47
2023-01-29T04:08:36.403Z,2.55
2023-01-29T04:11:12.313Z,2.50
2023-01-29T04:13:40.184Z,2.54
2023-01-29T04:16:11.200Z,2.46
2023-01-29T04:18:38.520Z,2.34
2023-01-29T04:21:07.463Z,2.51
2023-01-29T04:23:34.785Z,2.38
2023-01-29T04:26:27.816Z,2.35
2023-01-29T04:29:06.369Z,2.39
2023-01-29T04:31:37.871Z,2.29
2023-01-29T04:34:26.804Z,2.40
2023-01-29T04:37:10.448Z,2.34
2023-01-29T04:39:59.286Z,2.43
2023-01-29T04:42:41.982Z,2.38
2023-01-29T04:45:34.225Z,2.42
2023-01-29T04:48:16.106Z,2.47
2023-01-29T04:51:19.417Z,2.40
2023-01-29T04:54:12.424Z,2.41
2023-01-29T04:56:44.804Z,2.10
2023-01-29T04:59:23.865Z,2.17
2023-01-29T05:01:50.985Z,2.32
2023-01-29T05:04:21.039Z,2.32
2023-01-29T05:06:51.457Z,2.34
2023-01-29T05:09:20.107Z,2.31
2023-01-29T05:11:49.035Z,2.16
2023-01-29T05:14:19.324Z,2.30
2023-01-29T05:16:51.836Z,2.29
2023-01-29T05:19:18.832Z,2.29
2023-01-29T05:21:48.944Z,2.29
2023-01-29T05:24:19.694Z,2.26
2023-01-29T05:27:07.763Z,2.24
2023-01-29T05:29:35.021Z,2.22
2023-01-29T05:32:02.136Z,2.23
2023-01-29T05:34:29.018Z,2.27
2023-01-29T05:36:56.173Z,2.29
2023-01-29T05:39:23.099Z,2.31
2023-01-29T05:41:50.066Z,2.30
2023-01-29T05:44:17.329Z,2.25
2023-01-29T05:46:44.827Z,2.32
2023-01-29T05:49:12.096Z,2.36
2023-01-29T05:51:39.026Z,2.31
2023-01-29T05:54:05.895Z,2.29
2023-01-29T05:56:32.814Z,2.16
2023-01-29T05:58:59.835Z,2.22
2023-01-29T06:01:26.978Z,2.27
2023-01-29T06:03:53.856Z,2.17
2023-01-29T06:06:20.797Z,2.15
2023-01-29T06:08:48.097Z,2.17
2023-01-29T06:11:18.455Z,2.19
2023-01-29T06:13:46.021Z,2.29
2023-01-29T06:16:14.389Z,2.42
2023-01-29T06:18:42.542Z,2.42
2023-01-29T06:21:13.720Z,2.48
2023-01-29T06:23:41.317Z,2.50
2023-01-29T06:26:12.124Z,2.61
2023-01-29T06:28:39.274Z,2.63
2023-01-29T06:31:26.592Z,2.51
2023-01-29T06:33:54.318Z,2.49
2023-01-29T06:36:21.286Z,2.59
2023-01-29T06:38:48.282Z,2.63
2023-01-29T06:41:18.274Z,2.54
2023-01-29T06:43:46.060Z,2.41
2023-01-29T06:46:12.969Z,2.44
2023-01-29T06:48:40.058Z,2.43
2023-01-29T06:51:08.896Z,2.49
2023-01-29T06:53:37.443Z,2.48
2023-01-29T06:56:05.668Z,2.52
2023-01-29T06:58:32.606Z,2.53
2023-01-29T07:01:06.612Z,2.46
2023-01-29T07:03:33.675Z,2.48
2023-01-29T07:06:03.426Z,2.48
2023-01-29T07:08:30.518Z,2.32
2023-01-29T07:11:01.524Z,2.38
2023-01-29T07:13:30.807Z,2.42
2023-01-29T07:16:07.483Z,2.42
2023-01-29T07:18:34.549Z,2.37
2023-01-29T07:21:06.582Z,2.27
2023-01-29T07:23:35.005Z,2.46
2023-01-29T07:26:06.338Z,2.42
2023-01-29T07:28:37.747Z,2.56
2023-01-29T07:31:06.088Z,2.47
2023-01-29T07:33:33.841Z,2.52
2023-01-29T07:36:02.438Z,2.61
2023-01-29T07:38:29.337Z,2.48
2023-01-29T07:40:56.256Z,2.67
2023-01-29T07:43:25.515Z,2.65
2023-01-29T07:45:52.562Z,2.48
2023-01-29T07:48:19.739Z,2.42
2023-01-29T07:50:55.432Z,2.36
2023-01-29T07:53:22.702Z,2.49
2023-01-29T07:55:49.539Z,2.49
2023-01-29T07:58:16.374Z,2.54
2023-01-29T08:00:44.244Z,2.48
2023-01-29T08:03:16.926Z,2.42
2023-01-29T08:05:45.534Z,2.47
2023-01-29T08:08:13.508Z,2.48
2023-01-29T08:10:41.047Z,2.53
2023-01-29T08:13:08.542Z,2.45
2023-01-29T08:15:39.226Z,2.62
2023-01-29T08:18:08.428Z,2.68
2023-01-29T08:20:35.230Z,2.68
2023-01-29T08:23:07.631Z,2.65
2023-01-29T08:25:35.972Z,2.72
2023-01-29T08:28:02.913Z,2.71
2023-01-29T08:30:31.867Z,2.61
2023-01-29T08:32:59.287Z,2.55
2023-01-29T08:35:26.795Z,2.54
2023-01-29T08:38:01.650Z,2.56
2023-01-29T08:40:32.306Z,2.63
2023-01-29T08:43:02.198Z,2.58
2023-01-29T08:45:30.974Z,2.80
2023-01-29T08:47:57.983Z,2.75
2023-01-29T08:50:24.935Z,2.83
2023-01-29T08:52:51.926Z,2.75
2023-01-29T08:55:19.133Z,2.92
2023-01-29T08:57:46.421Z,2.77
2023-01-29T09:00:14.794Z,2.78
2023-01-29T09:02:42.339Z,2.77
2023-01-29T09:05:10.058Z,2.72
2023-01-29T09:07:37.375Z,2.83
2023-01-29T09:10:23.098Z,2.79
2023-01-29T09:12:50.092Z,2.62
2023-01-29T09:15:17.543Z,2.64
2023-01-29T09:17:44.606Z,2.75
2023-01-29T09:20:12.322Z,2.77
2023-01-29T09:22:39.208Z,2.67
2023-01-29T09:25:06.787Z,2.73
2023-01-29T09:27:34.169Z,2.83
2023-01-29T09:30:01.018Z,2.73
2023-01-29T09:32:52.665Z,2.74
2023-01-29T09:35:17.895Z,2.72
2023-01-29T09:37:48.375Z,2.73
2023-01-29T09:40:35.495Z,2.84
2023-01-29T09:43:15.796Z,2.68
2023-01-29T09:46:06.558Z,3.29
2023-01-29T09:48:36.645Z,2.79
2023-01-29T09:51:14.025Z,2.73
2023-01-29T09:53:47.741Z,2.89
2023-01-29T09:56:20.306Z,2.74
2023-01-29T09:58:47.722Z,2.57
2023-01-29T10:01:37.976Z,2.70
2023-01-29T10:04:21.451Z,2.42
2023-01-29T10:06:48.487Z,2.46
2023-01-29T10:09:39.432Z,2.50
2023-01-29T10:12:37.331Z,2.47
2023-01-29T10:15:28.789Z,2.45
2023-01-29T10:18:03.779Z,2.46
2023-01-29T10:20:49.053Z,2.22
2023-01-29T10:23:25.279Z,2.27
2023-01-29T10:25:53.748Z,2.08
2023-01-29T10:28:46.391Z,2.20
2023-01-29T10:31:39.131Z,2.22
2023-01-29T10:34:34.739Z,2.23
2023-01-29T10:37:07.105Z,2.24
2023-01-29T10:39:34.526Z,2.09
2023-01-29T10:42:41.197Z,2.09
2023-01-29T10:45:33.859Z,2.19
2023-01-29T10:48:06.976Z,2.05
2023-01-29T10:50:50.930Z,3.00
2023-01-29T10:53:30.007Z,2.65
2023-01-29T10:56:29.434Z,2.52
2023-01-29T10:59:06.011Z,2.48
2023-01-29T11:01:32.813Z,2.57
2023-01-29T11:04:04.698Z,2.48
2023-01-29T11:06:37.094Z,2.53
2023-01-29T11:09:13.968Z,2.49
2023-01-29T11:11:52.211Z,2.17
2023-01-29T11:14:27.220Z,2.35
2023-01-29T11:16:54.385Z,2.33
2023-01-29T11:19:41.585Z,2.33
2023-01-29T11:22:16.815Z,2.47
2023-01-29T11:24:44.187Z,2.46
2023-01-29T11:27:30.049Z,2.38
2023-01-29T11:29:57.476Z,2.54
2023-01-29T11:32:24.532Z,2.58
2023-01-29T11:35:16.776Z,2.69
2023-01-29T11:37:46.624Z,2.61
2023-01-29T11:40:19.375Z,2.53
2023-01-29T11:42:50.130Z,2.61
2023-01-29T11:45:23.223Z,2.53
2023-01-29T11:47:53.324Z,2.50
2023-01-29T11:50:24.628Z,2.50
2023-01-29T11:52:52.030Z,2.47
2023-01-29T11:55:49.909Z,2.46
2023-01-29T12:00:55.755Z,2.54
2023-01-29T12:03:43.976Z,2.56
2023-01-29T12:06:31.808Z,2.62
2023-01-29T12:09:01.935Z,2.55
2023-01-29T12:11:30.028Z,2.48
2023-01-29T12:14:05.173Z,2.44
2023-01-29T12:17:03.765Z,2.48
2023-01-29T12:19:50.997Z,2.49
2023-01-29T12:22:22.559Z,2.52
2023-01-29T12:24:55.472Z,2.61
2023-01-29T12:27:32.771Z,2.63
2023-01-29T12:30:12.027Z,2.58
2023-01-29T12:32:55.819Z,2.70
2023-01-29T12:35:31.815Z,2.81
2023-01-29T12:38:10.577Z,2.68
2023-01-29T12:40:44.701Z,2.69
2023-01-29T12:43:28.947Z,2.56
2023-01-29T12:45:58.574Z,2.58
2023-01-29T12:48:34.111Z,2.53
2023-01-29T12:51:24.758Z,2.56
2023-01-29T12:54:00.043Z,2.60
2023-01-29T12:56:37.162Z,2.60
2023-01-29T12:59:21.766Z,2.62
2023-01-29T13:01:54.937Z,2.59
2023-01-29T13:04:42.803Z,2.63
2023-01-29T13:07:15.163Z,2.61
2023-01-29T13:09:45.933Z,2.48
2023-01-29T13:12:18.939Z,2.49
2023-01-29T13:14:57.728Z,2.37
2023-01-29T13:17:33.285Z,2.31
2023-01-29T13:20:17.063Z,2.26
2023-01-29T13:22:46.001Z,2.38
2023-01-29T13:25:19.338Z,2.39
2023-01-29T13:27:48.385Z,2.38
2023-01-29T13:30:44.917Z,2.48
2023-01-29T13:33:24.193Z,2.40
2023-01-29T13:36:18.409Z,2.53
2023-01-29T13:38:45.423Z,2.52
2023-01-29T13:41:13.552Z,2.41
2023-01-29T13:46:25.296Z,2.45
2023-01-29T13:48:55.823Z,2.37
2023-01-29T13:51:28.080Z,2.31
2023-01-29T13:54:04.117Z,2.40
2023-01-29T13:56:33.729Z,2.38
2023-01-29T13:59:03.495Z,2.33
2023-01-29T14:01:48.928Z,2.26
2023-01-29T14:04:32.566Z,2.34
2023-01-29T14:07:00.667Z,2.20
2023-01-29T14:09:42.854Z,2.26
2023-01-29T14:12:21.994Z,2.33
2023-01-29T14:14:49.272Z,2.92
2023-01-29T14:17:19.057Z,3.13
2023-01-29T14:19:55.653Z,2.80
2023-01-29T14:22:32.647Z,2.70
2023-01-29T14:25:03.641Z,2.54
2023-01-29T14:27:31.561Z,2.51
2023-01-29T14:30:01.786Z,2.60
2023-01-29T14:32:29.696Z,2.61
2023-01-29T14:35:03.390Z,2.62
2023-01-29T14:37:34.612Z,2.48
2023-01-29T14:43:02.914Z,2.44
2023-01-29T14:48:11.128Z,2.36
2023-01-29T15:05:49.754Z,2.40
2023-01-29T15:08:40.845Z,2.48
2023-01-29T15:11:32.895Z,2.47
2023-01-29T15:14:36.610Z,2.46
2023-01-29T15:50:46.062Z,2.30
2023-01-29T16:04:11.693Z,2.35
2023-01-29T16:06:41.101Z,2.44
2023-01-29T16:09:09.008Z,2.38
2023-01-29T16:11:36.408Z,2.50
2023-01-29T16:14:04.097Z,2.43
2023-01-29T16:16:31.213Z,2.46
2023-01-29T16:19:00.844Z,2.46
2023-01-29T16:21:36.525Z,2.42
2023-01-29T16:24:14.109Z,2.46
2023-01-29T16:26:47.613Z,2.44
2023-01-29T16:29:30.388Z,2.54
2023-01-29T16:32:02.221Z,2.40
2023-01-29T16:34:41.427Z,2.35
2023-01-29T16:37:26.500Z,2.41
2023-01-29T16:39:53.463Z,2.33
2023-01-29T16:42:23.359Z,2.40
2023-01-29T16:45:28.143Z,2.43
2023-01-29T16:51:11.070Z,2.54
2023-01-29T16:53:38.280Z,2.55
2023-01-29T16:56:08.289Z,2.51
2023-01-29T16:58:36.752Z,2.48
2023-01-29T17:01:09.228Z,2.40
2023-01-29T17:03:37.562Z,2.53
2023-01-29T17:06:14.916Z,2.41
2023-01-29T17:08:49.513Z,2.48
2023-01-29T17:11:28.904Z,2.43
2023-01-29T17:13:57.346Z,2.49
2023-01-29T17:16:31.647Z,2.59
2023-01-29T17:18:59.677Z,2.55
2023-01-29T17:21:26.964Z,2.62
2023-01-29T17:23:54.060Z,2.43
2023-01-29T17:26:21.507Z,2.51
2023-01-29T17:28:51.524Z,2.47
2023-01-29T17:31:18.459Z,2.47
2023-01-29T17:33:46.064Z,2.43
2023-01-29T17:36:15.837Z,2.49
2023-01-29T17:38:43.116Z,2.58
2023-01-29T17:41:23.050Z,2.47
2023-01-29T17:43:50.047Z,2.58
2023-01-29T17:46:23.119Z,2.30
2023-01-29T17:48:50.370Z,2.50
2023-01-29T17:51:18.460Z,2.48
2023-01-29T17:53:47.005Z,2.29
2023-01-29T17:56:17.130Z,2.39
2023-01-29T17:58:44.515Z,2.45
2023-01-29T18:01:11.412Z,2.41
2023-01-29T18:03:38.423Z,2.48
2023-01-29T18:06:08.804Z,2.47
2023-01-29T18:08:38.258Z,2.44
2023-01-29T18:11:05.738Z,2.48
2023-01-29T18:13:35.540Z,2.42
2023-01-29T18:16:02.598Z,2.47
2023-01-29T18:18:29.704Z,2.56
2023-01-29T18:20:56.478Z,2.52
2023-01-29T18:23:23.330Z,2.56
2023-01-29T18:25:50.253Z,2.48
2023-01-29T18:28:17.816Z,2.41
2023-01-29T18:30:48.038Z,2.35
2023-01-29T18:33:16.523Z,2.42
2023-01-29T18:35:50.069Z,2.41
2023-01-29T18:38:17.560Z,2.45
2023-01-29T18:40:44.498Z,2.45
2023-01-29T18:43:11.374Z,2.35
2023-01-29T18:45:41.180Z,2.40
2023-01-29T18:48:08.237Z,2.39
2023-01-29T18:50:36.359Z,2.42
2023-01-29T18:53:08.945Z,2.37
2023-01-29T18:55:36.241Z,2.39
2023-01-29T18:58:28.983Z,2.50
2023-01-29T19:00:52.436Z,2.40
2023-01-29T19:03:23.089Z,2.32
2023-01-29T19:05:52.098Z,2.13
2023-01-29T19:08:19.164Z,2.16
2023-01-29T19:10:46.233Z,2.18
2023-01-29T19:13:13.473Z,2.33
2023-01-29T19:15:43.278Z,2.42
2023-01-29T19:18:12.557Z,2.52
2023-01-29T19:20:45.232Z,2.46
2023-01-29T19:23:14.062Z,2.38
2023-01-29T19:25:41.044Z,2.39
2023-01-29T19:28:08.311Z,2.41
2023-01-29T19:30:36.592Z,2.36
2023-01-29T19:33:04.830Z,2.46
2023-01-29T19:35:33.154Z,2.34
2023-01-29T19:38:01.438Z,2.29
2023-01-29T19:40:28.500Z,2.29
2023-01-29T19:42:56.484Z,2.20
2023-01-29T19:45:49.441Z,2.23
2023-01-29T19:48:17.023Z,2.30
2023-01-29T19:50:43.922Z,2.37
2023-01-29T19:53:10.831Z,2.32
2023-01-29T19:55:37.960Z,2.42
2023-01-29T19:58:05.087Z,2.33
2023-01-29T20:00:32.192Z,2.38
2023-01-29T20:02:59.004Z,2.31
2023-01-29T20:05:27.465Z,2.43
2023-01-29T20:07:54.314Z,2.37
2023-01-29T20:10:21.542Z,2.42
2023-01-29T20:12:48.557Z,2.32
2023-01-29T20:15:15.611Z,2.49
2023-01-29T20:17:42.606Z,2.52
2023-01-29T20:20:10.279Z,2.35
2023-01-29T20:22:38.069Z,2.44
2023-01-29T20:25:05.340Z,2.33
2023-01-29T20:27:32.172Z,2.41
2023-01-29T20:29:59.839Z,2.37
2023-01-29T20:32:26.856Z,2.32
2023-01-29T20:34:53.712Z,2.31
2023-01-29T20:37:20.878Z,2.25
2023-01-29T20:39:47.956Z,2.16
2023-01-29T20:42:15.340Z,2.12
2023-01-29T20:44:42.242Z,2.13
2023-01-29T20:47:09.408Z,2.18
2023-01-29T20:49:36.358Z,2.09
2023-01-29T20:52:03.272Z,2.06
2023-01-29T20:54:33.304Z,2.12
2023-01-29T20:57:00.537Z,2.10
2023-01-29T20:59:29.510Z,2.08
2023-01-29T21:01:56.585Z,2.04
2023-01-29T21:04:23.685Z,2.04
2023-01-29T21:06:52.476Z,2.19
2023-01-29T21:09:20.836Z,2.20
2023-01-29T21:11:48.017Z,2.22
2023-01-29T21:14:17.330Z,2.29
2023-01-29T21:16:44.403Z,2.21
2023-01-29T21:19:14.529Z,2.18
2023-01-29T21:21:41.807Z,2.26
2023-01-29T21:24:10.596Z,2.11
2023-01-29T21:26:38.687Z,2.23
2023-01-29T21:29:05.581Z,2.20
2023-01-29T21:31:33.716Z,2.26
2023-01-29T21:34:00.527Z,2.35
2023-01-29T21:36:27.444Z,2.41
2023-01-29T21:38:54.304Z,2.30
2023-01-29T21:41:41.134Z,2.30
2023-01-29T21:44:08.222Z,2.32
2023-01-29T21:46:35.367Z,2.25
2023-01-29T21:49:06.607Z,2.30
2023-01-29T21:51:34.573Z,2.30
2023-01-29T21:54:03.583Z,2.15
2023-01-29T21:56:30.785Z,2.21
2023-01-29T21:59:01.031Z,2.41
2023-01-29T22:01:37.471Z,2.33
2023-01-29T22:04:07.850Z,2.28
2023-01-29T22:06:34.842Z,2.27
2023-01-29T22:09:01.736Z,2.31
2023-01-29T22:11:28.995Z,2.27
2023-01-29T22:13:56.154Z,2.31
2023-01-29T22:16:23.104Z,2.36
2023-01-29T22:18:50.464Z,2.25
2023-01-29T22:21:17.416Z,2.31
2023-01-29T22:23:48.661Z,2.41
2023-01-29T22:26:16.221Z,2.31
2023-01-29T22:28:43.247Z,2.27
2023-01-29T22:31:10.589Z,2.25
2023-01-29T22:33:37.810Z,2.27
2023-01-29T22:36:05.014Z,2.28
2023-01-29T22:38:32.103Z,2.41
2023-01-29T22:41:00.694Z,2.33
2023-01-29T22:43:27.714Z,2.27
2023-01-29T22:45:55.236Z,2.27
2023-01-29T22:48:23.434Z,2.36
2023-01-29T22:51:09.814Z,2.23
2023-01-29T22:53:48.633Z,2.28
2023-01-29T22:56:16.466Z,2.33
2023-01-29T22:58:43.325Z,2.25
2023-01-29T23:01:10.909Z,2.34
2023-01-29T23:03:37.828Z,2.35
2023-01-29T23:06:04.800Z,2.38
2023-01-29T23:08:34.231Z,2.33
2023-01-29T23:11:15.119Z,2.34
2023-01-29T23:13:46.651Z,2.38
2023-01-29T23:16:14.854Z,2.37
2023-01-29T23:18:42.149Z,2.41
2023-01-29T23:21:09.820Z,2.35
2023-01-29T23:23:37.996Z,2.35
2023-01-29T23:26:25.443Z,2.41
2023-01-29T23:28:52.726Z,2.38
2023-01-29T23:31:19.633Z,2.46
2023-01-29T23:33:46.664Z,2.39
2023-01-29T23:36:13.558Z,2.33
2023-01-29T23:38:40.411Z,2.34
2023-01-29T23:41:07.566Z,2.37
2023-01-29T23:43:35.001Z,2.34
2023-01-29T23:46:04.271Z,2.38
2023-01-29T23:48:31.191Z,2.34
2023-01-29T23:50:58.182Z,2.35
2023-01-29T23:53:25.076Z,2.40
2023-01-29T23:56:03.944Z,2.41
2023-01-29T23:58:31.807Z,2.40
